Time;durP1;ratioP1;P1;durP2;ratioP2;P2;SDS_P1;SDS_P2;PMS_P1;PMS_P2;Temp;Humidity;BMP_temperature;BMP_pressure;BME280_temperature;BME280_humidity;BME280_pressure;Samples;Min_cycle;Max_cycle;Signal;HPM_P1;HPM_P2
2023/11/29 00:00:24;;;;;;;55.50;29.47;;;;;;;0.95;nan;99226.88;5039050;27;96717;-73
2023/11/29 00:02:49;;;;;;;55.90;31.20;;;;;;;0.89;nan;99222.63;5038818;27;97947;-74
2023/11/29 00:05:16;;;;;;;55.83;29.03;;;;;;;0.92;nan;99239.81;5055685;27;99481;-76
2023/11/29 00:07:43;;;;;;;51.00;27.60;;;;;;;0.87;nan;99232.16;5038512;27;96545;-74
2023/11/29 00:10:09;;;;;;;52.33;29.47;;;;;;;0.96;nan;99238.94;5021819;27;96762;-74
2023/11/29 00:12:35;;;;;;;54.87;28.30;;;;;;;0.80;nan;99238.25;5054803;27;98370;-74
2023/11/29 00:15:01;;;;;;;56.70;29.63;;;;;;;0.83;nan;99240.78;5038220;27;100764;-76
2023/11/29 00:17:26;;;;;;;54.90;29.40;;;;;;;0.91;nan;99235.53;5021517;27;96570;-74
2023/11/29 00:19:52;;;;;;;54.67;29.80;;;;;;;0.74;nan;99232.31;5021734;27;96793;-74
2023/11/29 00:22:17;;;;;;;48.80;27.07;;;;;;;0.90;nan;99247.63;5021416;27;101231;-74
2023/11/29 00:24:46;;;;;;;51.23;27.50;;;;;;;0.97;nan;99239.78;5021433;27;101224;-74
2023/11/29 00:27:15;;;;;;;50.30;27.77;;;;;;;0.88;nan;99248.50;5021716;27;96800;-74
2023/11/29 00:29:43;;;;;;;44.87;24.60;;;;;;;0.81;nan;99247.69;5039514;27;96528;-74
2023/11/29 00:32:08;;;;;;;50.23;26.63;;;;;;;0.84;nan;99257.13;5038013;27;101700;-74
2023/11/29 00:34:34;;;;;;;47.33;26.13;;;;;;;0.79;nan;99259.78;5021294;27;101571;-74
2023/11/29 00:37:01;;;;;;;49.00;27.03;;;;;;;0.75;nan;99268.44;5054831;27;96565;-74
2023/11/29 00:39:27;;;;;;;48.37;25.80;;;;;;;0.77;nan;99258.94;5038301;27;97004;-74
2023/11/29 00:41:52;;;;;;;56.67;29.77;;;;;;;0.72;nan;99275.38;5037930;27;101392;-74
2023/11/29 00:44:18;;;;;;;47.43;25.90;;;;;;;0.72;nan;99265.88;5037891;27;102073;-75
2023/11/29 00:46:43;;;;;;;46.20;25.60;;;;;;;0.63;nan;99258.25;5038031;27;96543;-74
2023/11/29 00:49:09;;;;;;;47.67;25.83;;;;;;;0.60;nan;99266.03;5054913;27;96834;-74
2023/11/29 00:51:34;;;;;;;43.33;24.20;;;;;;;0.39;nan;99256.78;5038044;27;97969;-74
2023/11/29 00:54:00;;;;;;;44.60;22.90;;;;;;;0.52;nan;99283.31;5055373;27;98038;-74
2023/11/29 00:56:25;;;;;;;45.73;24.27;;;;;;;0.60;nan;99268.59;5038169;27;96600;-74
2023/11/29 00:58:51;;;;;;;50.10;23.80;;;;;;;0.64;nan;99278.03;5037847;27;96756;-76
2023/11/29 01:01:16;;;;;;;48.00;23.77;;;;;;;0.68;nan;99279.72;5054362;27;98379;-75
2023/11/29 01:03:42;;;;;;;50.67;25.33;;;;;;;0.63;nan;99290.09;5020789;27;101429;-74
2023/11/29 01:06:08;;;;;;;47.77;23.97;;;;;;;0.63;nan;99291.81;5037591;27;96721;-74
2023/11/29 01:08:34;;;;;;;47.40;25.10;;;;;;;0.59;nan;99285.84;5054844;27;96946;-75
2023/11/29 01:10:59;;;;;;;45.13;23.47;;;;;;;0.62;nan;99284.94;5020522;27;101219;-75
2023/11/29 01:13:27;;;;;;;46.13;25.57;;;;;;;0.61;nan;99285.81;5037281;27;101158;-77
2023/11/29 01:15:53;;;;;;;44.20;23.50;;;;;;;0.51;nan;99279.88;5020774;27;96551;-74
2023/11/29 01:18:19;;;;;;;42.27;22.57;;;;;;;0.51;nan;99284.19;5020970;27;96783;-74
2023/11/29 01:20:44;;;;;;;39.50;21.83;;;;;;;0.44;nan;99292.00;5037431;27;101006;-74
2023/11/29 01:23:11;;;;;;;41.33;21.63;;;;;;;0.40;nan;99292.88;5037353;27;101082;-74
2023/11/29 01:25:36;;;;;;;45.87;23.57;;;;;;;0.42;nan;99291.16;5054231;27;96588;-74
2023/11/29 01:28:03;;;;;;;38.73;19.27;;;;;;;0.42;nan;99280.81;5037545;27;97402;-74
2023/11/29 01:30:29;;;;;;;39.70;20.87;;;;;;;0.43;nan;99276.50;5020701;27;101213;-74
2023/11/29 01:32:55;;;;;;;39.00;20.53;;;;;;;0.52;nan;99289.34;5020430;27;101543;-77
2023/11/29 01:35:20;;;;;;;37.60;20.17;;;;;;;0.49;nan;99275.59;5020516;27;97106;-74
2023/11/29 01:37:46;;;;;;;41.13;21.77;;;;;;;0.52;nan;99289.34;5054522;27;96899;-74
2023/11/29 01:40:11;;;;;;;42.87;22.17;;;;;;;0.48;nan;99285.09;5036915;27;101329;-74
2023/11/29 01:42:37;;;;;;;41.00;21.57;;;;;;;0.56;nan;99290.19;5037507;27;101569;-74
2023/11/29 01:45:03;;;;;;;43.10;22.00;;;;;;;0.57;nan;99289.31;5020414;27;97009;-75
2023/11/29 01:47:33;;;;;;;37.77;20.57;;;;;;;0.60;nan;99291.84;5020585;27;96547;-74
2023/11/29 01:50:03;;;;;;;37.70;20.30;;;;;;;0.38;nan;99288.63;5036620;27;101401;-74
2023/11/29 01:52:32;;;;;;;36.13;19.20;;;;;;;0.48;nan;99298.00;5020039;27;101525;-74
2023/11/29 01:54:58;;;;;;;35.23;18.50;;;;;;;0.56;nan;99295.34;5054189;27;96548;-74
2023/11/29 01:57:24;;;;;;;30.40;16.53;;;;;;;0.44;nan;99281.69;5036891;27;96903;-74
2023/11/29 01:59:49;;;;;;;31.50;17.80;;;;;;;0.57;nan;99277.25;5020128;27;101358;-74
2023/11/29 02:02:15;;;;;;;31.10;17.83;;;;;;;0.61;nan;99280.63;5036613;27;101450;-74
2023/11/29 02:04:41;;;;;;;30.80;17.63;;;;;;;0.67;nan;99286.63;5036932;27;96547;-74
2023/11/29 02:07:06;;;;;;;30.67;17.37;;;;;;;0.60;nan;99272.03;5054546;27;96720;-74
2023/11/29 02:09:32;;;;;;;28.93;16.47;;;;;;;0.58;nan;99278.97;5019900;27;101054;-74
2023/11/29 02:11:59;;;;;;;28.63;15.77;;;;;;;0.51;nan;99285.06;5053374;27;97466;-77
2023/11/29 02:14:25;;;;;;;28.80;15.10;;;;;;;0.54;nan;99286.75;5036824;27;96737;-77
2023/11/29 02:16:50;;;;;;;25.97;14.03;;;;;;;0.48;nan;99284.22;5019857;27;97838;-74
2023/11/29 02:19:16;;;;;;;24.67;13.83;;;;;;;0.46;nan;99279.06;5038099;27;98008;-74
2023/11/29 02:21:42;;;;;;;27.07;15.47;;;;;;;0.54;nan;99282.44;5040199;27;101063;-74
2023/11/29 02:24:14;;;;;;;27.03;14.67;;;;;;;0.59;nan;99280.66;5023535;27;96557;-74
2023/11/29 02:26:40;;;;;;;24.60;13.82;;;;;;;0.39;nan;99269.69;5040751;27;96705;-76
2023/11/29 02:29:06;;;;;;;27.30;14.23;;;;;;;0.51;nan;99290.22;5023161;27;101649;-74
2023/11/29 02:31:31;;;;;;;24.50;14.17;;;;;;;0.44;nan;99270.50;5040273;27;101299;-75
2023/11/29 02:33:57;;;;;;;24.17;12.97;;;;;;;0.43;nan;99295.44;5023329;27;96673;-74
2023/11/29 02:36:23;;;;;;;24.90;12.73;;;;;;;0.47;nan;99287.66;5040182;27;96759;-75
2023/11/29 02:38:49;;;;;;;21.63;12.13;;;;;;;0.53;nan;99303.13;5056191;27;101392;-75
2023/11/29 02:41:14;;;;;;;21.97;12.87;;;;;;;0.57;nan;99297.06;5039888;27;100816;-74
2023/11/29 02:43:40;;;;;;;25.20;12.83;;;;;;;0.61;nan;99296.13;5039887;27;96853;-74
2023/11/29 02:46:05;;;;;;;21.57;12.70;;;;;;;0.64;nan;99298.69;5040244;27;96805;-74
2023/11/29 02:48:31;;;;;;;20.47;12.53;;;;;;;0.59;nan;99295.31;5056837;27;98619;-74
2023/11/29 02:50:56;;;;;;;22.63;12.93;;;;;;;0.52;nan;99283.31;5039787;27;101332;-75
2023/11/29 02:53:22;;;;;;;20.40;12.10;;;;;;;0.68;nan;99297.81;5034519;27;96621;-74
2023/11/29 02:55:47;;;;;;;22.77;14.27;;;;;;;0.69;nan;99307.25;5054809;27;96811;-74
2023/11/29 02:58:13;;;;;;;20.60;13.23;;;;;;;0.51;nan;99305.72;5039430;27;101757;-74
2023/11/29 03:00:38;;;;;;;22.50;13.13;;;;;;;0.50;nan;99306.59;5056816;27;98390;-74
2023/11/29 03:03:04;;;;;;;19.40;11.80;;;;;;;0.57;nan;99302.22;5055918;27;97004;-76
2023/11/29 03:05:29;;;;;;;22.27;12.03;;;;;;;0.56;nan;99305.69;5039946;27;96717;-77
2023/11/29 03:07:55;;;;;;;19.07;11.17;;;;;;;0.64;nan;99311.59;5022505;27;101446;-75
2023/11/29 03:10:20;;;;;;;17.77;11.33;;;;;;;0.63;nan;99304.72;5039648;27;97914;-75
2023/11/29 03:12:46;;;;;;;24.77;11.67;;;;;;;0.56;nan;99301.38;5039480;27;96618;-74
2023/11/29 03:15:12;;;;;;;21.27;11.87;;;;;;;0.66;nan;99317.63;5022428;27;96852;-75
2023/11/29 03:17:38;;;;;;;19.37;11.97;;;;;;;0.57;nan;99286.72;5022518;27;100348;-75
2023/11/29 03:20:04;;;;;;;16.57;10.33;;;;;;;0.64;nan;99301.28;5039655;27;101224;-74
2023/11/29 03:22:29;;;;;;;15.70;10.23;;;;;;;0.70;nan;99301.25;5039226;27;97090;-77
2023/11/29 03:24:57;;;;;;;17.80;10.57;;;;;;;0.83;nan;99304.53;5022389;27;96890;-74
2023/11/29 03:27:22;;;;;;;15.17;9.87;;;;;;;0.61;nan;99307.34;5022004;27;101043;-74
2023/11/29 03:29:48;;;;;;;19.57;10.13;;;;;;;0.71;nan;99302.09;5039260;27;98432;-75
2023/11/29 03:32:13;;;;;;;15.00;9.43;;;;;;;0.60;nan;99291.84;5038591;27;96613;-74
2023/11/29 03:34:39;;;;;;;18.50;9.37;;;;;;;0.74;nan;99304.63;5039136;27;96782;-74
2023/11/29 03:37:04;;;;;;;13.03;7.90;;;;;;;0.62;nan;99287.53;5038880;27;100994;-75
2023/11/29 03:39:30;;;;;;;15.07;9.00;;;;;;;0.69;nan;99302.09;5038585;27;101670;-74
2023/11/29 03:41:55;;;;;;;16.93;9.53;;;;;;;0.61;nan;99299.59;5022250;27;96602;-75
2023/11/29 03:44:21;;;;;;;14.33;9.13;;;;;;;0.75;nan;99303.75;5022493;27;96668;-74
2023/11/29 03:46:46;;;;;;;14.17;8.67;;;;;;;0.72;nan;99302.06;5038678;27;101728;-75
2023/11/29 03:49:12;;;;;;;16.67;9.70;;;;;;;0.74;nan;99309.81;5038676;27;101273;-77
2023/11/29 03:51:37;;;;;;;14.20;9.87;;;;;;;0.77;nan;99300.28;5038197;27;97136;-75
2023/11/29 03:54:03;;;;;;;14.53;8.80;;;;;;;0.81;nan;99295.94;5055782;27;96791;-75
2023/11/29 03:56:29;;;;;;;14.47;8.20;;;;;;;0.79;nan;99301.13;5038599;27;101183;-75
2023/11/29 03:58:54;;;;;;;20.77;12.90;;;;;;;0.78;nan;99303.72;5038558;27;100783;-76
2023/11/29 04:01:20;;;;;;;16.00;10.00;;;;;;;0.79;nan;99298.56;5038582;27;96759;-74
2023/11/29 04:03:46;;;;;;;14.43;8.43;;;;;;;0.76;nan;99305.47;5055960;27;96759;-74
2023/11/29 04:06:26;;;;;;;13.80;8.37;;;;;;;0.65;nan;99296.09;5038863;27;98318;-75
2023/11/29 04:08:55;;;;;;;16.13;9.20;;;;;;;0.78;nan;99298.56;5056125;27;97979;-75
2023/11/29 04:11:23;;;;;;;12.93;8.30;;;;;;;0.78;nan;99309.72;5021709;27;97069;-74
2023/11/29 04:13:48;;;;;;;13.87;8.07;;;;;;;0.61;nan;99309.94;5038639;27;96778;-74
2023/11/29 04:16:27;;;;;;;13.83;8.30;;;;;;;0.69;nan;99307.25;5021554;27;100464;-75
2023/11/29 04:18:53;;;;;;;14.07;9.03;;;;;;;0.63;nan;99289.22;5021449;27;101631;-74
2023/11/29 04:21:30;;;;;;;15.77;9.23;;;;;;;0.82;nan;99306.28;5038254;27;96723;-77
2023/11/29 04:23:56;;;;;;;14.60;9.07;;;;;;;0.88;nan;99302.75;5055915;27;96519;-75
2023/11/29 04:26:29;;;;;;;13.60;8.83;;;;;;;0.85;nan;99300.22;5021391;27;101238;-74
2023/11/29 04:28:58;;;;;;;16.57;9.20;;;;;;;0.80;nan;99297.66;5021525;27;101551;-74
2023/11/29 04:31:24;;;;;;;11.73;8.13;;;;;;;0.82;nan;99283.00;5038136;27;96616;-74
2023/11/29 04:33:50;;;;;;;14.40;8.33;;;;;;;0.79;nan;99277.88;5038786;27;96796;-76
2023/11/29 04:36:16;;;;;;;14.63;8.63;;;;;;;0.77;nan;99282.19;5021187;27;101648;-75
2023/11/29 04:38:42;;;;;;;12.63;8.60;;;;;;;0.83;nan;99279.53;5054451;27;101001;-74
2023/11/29 04:41:08;;;;;;;13.00;8.43;;;;;;;0.87;nan;99289.00;5037444;27;97044;-77
2023/11/29 04:43:34;;;;;;;12.10;8.10;;;;;;;0.89;nan;99283.78;5038083;27;96801;-74
2023/11/29 04:45:59;;;;;;;13.03;8.50;;;;;;;0.82;nan;99288.19;5021389;27;101518;-76
2023/11/29 04:48:25;;;;;;;15.07;7.30;;;;;;;0.82;nan;99288.19;5037518;27;101361;-76
2023/11/29 04:50:51;;;;;;;11.13;7.03;;;;;;;0.83;nan;99289.88;5038164;27;96564;-76
2023/11/29 04:53:16;;;;;;;12.07;8.00;;;;;;;0.81;nan;99283.00;5021102;27;96569;-74
2023/11/29 04:55:42;;;;;;;13.43;7.67;;;;;;;0.84;nan;99270.94;5073069;27;97595;-74
2023/11/29 04:58:07;;;;;;;10.03;6.83;;;;;;;0.93;nan;99282.03;5055170;27;97914;-74
2023/11/29 05:00:33;;;;;;;9.70;7.10;;;;;;;0.81;nan;99285.59;5020576;27;96652;-74
2023/11/29 05:02:58;;;;;;;11.20;7.23;;;;;;;0.81;nan;99286.44;5055049;27;96824;-75
2023/11/29 05:05:24;;;;;;;9.63;6.73;;;;;;;0.88;nan;99276.91;5037442;27;97620;-75
2023/11/29 05:07:51;;;;;;;12.77;8.07;;;;;;;0.84;nan;99289.03;5038178;27;97466;-74
2023/11/29 05:10:17;;;;;;;10.00;7.00;;;;;;;0.81;nan;99281.28;5054963;27;96617;-75
2023/11/29 05:12:42;;;;;;;12.63;7.80;;;;;;;0.80;nan;99271.84;5036955;27;96942;-74
2023/11/29 05:15:09;;;;;;;13.23;8.80;;;;;;;0.80;nan;99278.72;5072950;27;98046;-73
2023/11/29 05:17:34;;;;;;;13.37;8.30;;;;;;;0.78;nan;99277.88;5054193;27;101347;-76
2023/11/29 05:20:00;;;;;;;12.10;6.93;;;;;;;0.77;nan;99282.19;5037718;27;96542;-74
2023/11/29 05:22:25;;;;;;;13.63;7.13;;;;;;;0.80;nan;99273.56;5021062;27;96836;-76
2023/11/29 05:24:51;;;;;;;13.87;7.93;;;;;;;0.68;nan;99269.38;5037628;27;97428;-73
2023/11/29 05:27:16;;;;;;;12.77;8.13;;;;;;;0.83;nan;99289.03;5037085;27;100571;-71
2023/11/29 05:29:42;;;;;;;15.37;8.67;;;;;;;0.86;nan;99284.69;5036832;27;96526;-78
2023/11/29 05:32:08;;;;;;;13.73;8.07;;;;;;;0.86;nan;99283.81;5054096;27;96705;-70
2023/11/29 05:34:34;;;;;;;12.93;8.53;;;;;;;0.86;nan;99284.69;5036885;27;101492;-70
2023/11/29 05:36:59;;;;;;;12.37;7.53;;;;;;;0.96;nan;99287.16;5054116;27;97850;-70
2023/11/29 05:39:25;;;;;;;13.17;8.90;;;;;;;0.84;nan;99276.09;5037115;27;96635;-73
2023/11/29 05:41:50;;;;;;;15.20;8.73;;;;;;;0.75;nan;99289.09;5053759;27;96884;-70
2023/11/29 05:44:16;;;;;;;14.00;8.87;;;;;;;0.68;nan;99285.72;5036747;27;101388;-73
2023/11/29 05:46:42;;;;;;;16.27;11.07;;;;;;;0.67;nan;99283.19;5054104;27;97368;-73
2023/11/29 05:49:08;;;;;;;16.87;10.47;;;;;;;0.68;nan;99288.31;5054071;27;96547;-70
2023/11/29 05:51:35;;;;;;;13.97;9.67;;;;;;;0.71;nan;99286.59;5037268;27;96820;-70
2023/11/29 05:54:01;;;;;;;16.17;10.93;;;;;;;0.75;nan;99283.94;5054185;27;97335;-70
2023/11/29 05:56:27;;;;;;;13.93;9.33;;;;;;;0.64;nan;99281.47;5023432;27;100642;-71
2023/11/29 05:58:53;;;;;;;17.27;11.00;;;;;;;0.63;nan;99286.66;5040348;27;96583;-70
2023/11/29 06:01:19;;;;;;;17.93;9.73;;;;;;;0.70;nan;99287.44;5056973;27;96868;-71
2023/11/29 06:03:45;;;;;;;15.37;9.57;;;;;;;0.60;nan;99300.44;5040797;27;98477;-73
2023/11/29 06:06:11;;;;;;;20.50;11.50;;;;;;;0.32;nan;99304.16;5040479;27;101237;-77
2023/11/29 06:08:37;;;;;;;23.10;13.07;;;;;;;0.05;nan;99287.19;5040432;27;96637;-77
2023/11/29 06:11:05;;;;;;;23.17;13.47;;;;;;;-0.06;nan;99288.13;5040669;27;96881;-74
2023/11/29 06:13:30;;;;;;;27.10;15.90;;;;;;;-0.21;nan;99308.00;5040791;27;97030;-77
2023/11/29 06:15:56;;;;;;;30.97;17.27;;;;;;;-0.30;nan;99309.78;5040198;27;101131;-77
2023/11/29 06:18:21;;;;;;;31.67;17.13;;;;;;;-0.38;nan;99303.81;5040284;27;96509;-80
2023/11/29 06:20:47;;;;;;;30.90;17.43;;;;;;;-0.47;nan;99307.31;5023593;27;96909;-77
2023/11/29 06:23:13;;;;;;;33.77;18.30;;;;;;;-0.68;nan;99303.09;5057607;27;97456;-77
2023/11/29 06:25:38;;;;;;;36.67;19.17;;;;;;;-0.88;nan;99307.50;5057295;27;97879;-76
2023/11/29 06:28:04;;;;;;;36.40;20.20;;;;;;;-1.01;nan;99306.69;5040044;27;96556;-77
2023/11/29 06:30:31;;;;;;;38.80;20.80;;;;;;;-1.28;nan;99296.44;5040767;27;96777;-82
2023/11/29 06:32:57;;;;;;;36.67;20.57;;;;;;;-1.32;nan;99310.22;5040030;27;101369;-77
2023/11/29 06:35:23;;;;;;;36.00;19.57;;;;;;;-1.25;nan;99312.78;5057332;27;100708;-77
2023/11/29 06:37:49;;;;;;;37.03;20.00;;;;;;;-1.27;nan;99322.22;5023005;27;96721;-78
2023/11/29 06:40:16;;;;;;;37.30;19.83;;;;;;;-1.38;nan;99327.38;5057074;27;96966;-79
2023/11/29 06:42:42;;;;;;;39.60;21.77;;;;;;;-1.57;nan;99329.97;5039898;27;97505;-77
2023/11/29 06:45:09;;;;;;;33.13;18.60;;;;;;;-1.73;nan;99329.13;5057551;27;97366;-78
2023/11/29 06:47:35;;;;;;;40.83;22.53;;;;;;;-1.91;nan;99328.28;5023276;27;96716;-78
2023/11/29 06:50:03;;;;;;;38.20;20.90;;;;;;;-2.03;nan;99323.13;5023179;27;96851;-79
2023/11/29 06:52:30;;;;;;;34.37;18.90;;;;;;;-1.99;nan;99329.13;5039357;27;101707;-79
2023/11/29 06:54:55;;;;;;;38.20;20.37;;;;;;;-1.96;nan;99335.13;5022883;27;101749;-84
2023/11/29 06:57:21;;;;;;;40.03;20.97;;;;;;;-1.84;nan;99329.13;5056826;27;96725;-76
2023/11/29 06:59:46;;;;;;;36.80;20.47;;;;;;;-1.86;nan;99341.16;5040016;27;96750;-85
2023/11/29 07:02:12;;;;;;;37.50;20.33;;;;;;;-1.66;nan;99339.44;5022376;27;100902;-80
2023/11/29 07:04:38;;;;;;;42.20;21.67;;;;;;;-1.88;nan;99324.84;5039001;27;99901;-80
2023/11/29 07:07:03;;;;;;;39.27;20.40;;;;;;;-1.73;nan;99342.84;5038744;27;96562;-76
2023/11/29 07:09:29;;;;;;;39.83;20.90;;;;;;;-1.88;nan;99335.13;5039109;27;97250;-76
2023/11/29 07:11:56;;;;;;;41.17;21.53;;;;;;;-2.01;nan;99338.53;5056257;27;98146;-81
2023/11/29 07:14:21;;;;;;;45.33;23.10;;;;;;;-2.14;nan;99324.81;5022471;27;101384;-81
2023/11/29 07:16:46;;;;;;;39.70;21.53;;;;;;;-2.19;nan;99334.25;5039715;27;96605;-77
2023/11/29 07:19:13;;;;;;;42.13;22.03;;;;;;;-2.42;nan;99341.91;5022769;27;96765;-77
2023/11/29 07:21:39;;;;;;;41.63;23.03;;;;;;;-2.40;nan;99341.03;5074661;27;97858;-77
2023/11/29 07:24:05;;;;;;;43.80;23.90;;;;;;;-2.49;nan;99348.75;5040192;27;97764;-78
2023/11/29 07:26:30;;;;;;;44.43;26.03;;;;;;;-2.63;nan;99356.41;5056455;27;96558;-78
2023/11/29 07:28:56;;;;;;;48.70;24.63;;;;;;;-2.56;nan;99341.84;5039269;27;96863;-77
2023/11/29 07:31:21;;;;;;;42.87;23.17;;;;;;;-2.23;nan;99345.38;5055604;27;98118;-77
2023/11/29 07:33:47;;;;;;;45.37;23.10;;;;;;;-2.02;nan;99357.41;5038795;27;99961;-77
2023/11/29 07:36:13;;;;;;;45.83;23.63;;;;;;;-2.01;nan;99341.97;5056155;27;96575;-78
2023/11/29 07:38:42;;;;;;;44.87;23.80;;;;;;;-1.84;nan;99344.56;5038954;27;96701;-77
2023/11/29 07:41:11;;;;;;;48.40;24.23;;;;;;;-1.57;nan;99351.44;5038446;27;101652;-78
2023/11/29 07:43:36;;;;;;;46.37;22.87;;;;;;;-1.21;nan;99347.94;5055784;27;101476;-77
2023/11/29 07:46:03;;;;;;;46.10;24.50;;;;;;;-0.81;nan;99340.13;5022087;27;96773;-78
2023/11/29 07:48:29;;;;;;;48.43;23.90;;;;;;;-0.39;nan;99322.72;5039225;27;96880;-77
2023/11/29 07:50:56;;;;;;;47.33;23.77;;;;;;;0.02;nan;99333.66;5055847;27;97889;-81
2023/11/29 07:53:22;;;;;;;44.20;24.37;;;;;;;0.35;nan;99328.25;5021923;27;101119;-75
2023/11/29 07:55:48;;;;;;;48.80;24.53;;;;;;;0.88;nan;99338.94;5038347;27;96582;-78
2023/11/29 07:58:13;;;;;;;43.73;23.60;;;;;;;1.11;nan;99331.78;5021916;27;97432;-77
2023/11/29 08:00:39;;;;;;;41.00;22.50;;;;;;;1.27;nan;99342.78;5038918;27;98029;-76
2023/11/29 08:03:04;;;;;;;41.40;25.53;;;;;;;1.73;nan;99356.88;5038322;27;100146;-77
2023/11/29 08:05:30;;;;;;;41.97;21.67;;;;;;;1.97;nan;99351.34;5038280;27;96539;-78
2023/11/29 08:07:55;;;;;;;41.63;23.30;;;;;;;2.18;nan;99346.72;5038594;27;96774;-83
2023/11/29 08:10:21;;;;;;;46.30;24.87;;;;;;;2.33;nan;99348.22;5038645;27;97762;-73
2023/11/29 08:12:47;;;;;;;43.03;23.87;;;;;;;2.54;nan;99350.47;5055572;27;97390;-71
2023/11/29 08:15:12;;;;;;;40.40;23.53;;;;;;;2.39;nan;99358.50;5055793;27;96526;-80
2023/11/29 08:17:38;;;;;;;45.53;24.83;;;;;;;2.45;nan;99338.53;5020801;27;96779;-80
2023/11/29 08:20:07;;;;;;;48.10;26.00;;;;;;;2.68;nan;99342.47;5037804;27;101076;-75
2023/11/29 08:22:33;;;;;;;47.30;25.53;;;;;;;2.82;nan;99350.88;5021535;27;101429;-80
2023/11/29 08:25:02;;;;;;;46.67;25.70;;;;;;;2.86;nan;99330.91;5055600;27;96621;-80
2023/11/29 08:27:27;;;;;;;45.43;25.23;;;;;;;3.07;nan;99353.00;5038293;27;96785;-74
2023/11/29 08:29:53;;;;;;;43.67;25.03;;;;;;;2.87;nan;99358.53;5055608;27;97371;-77
2023/11/29 08:32:18;;;;;;;43.60;24.00;;;;;;;3.05;nan;99354.75;5038122;27;97874;-75
2023/11/29 08:34:45;;;;;;;46.17;24.50;;;;;;;3.12;nan;99357.22;5055118;27;96642;-76
2023/11/29 08:37:10;;;;;;;46.70;26.47;;;;;;;3.35;nan;99348.13;5055382;27;96815;-87
2023/11/29 08:39:36;;;;;;;45.47;24.60;;;;;;;3.57;nan;99357.16;5038092;27;97482;-77
2023/11/29 08:42:03;;;;;;;47.67;25.47;;;;;;;3.86;nan;99372.13;5037776;27;101081;-83
2023/11/29 08:44:30;;;;;;;40.40;23.83;;;;;;;3.33;nan;99360.28;5054762;27;96592;-84
2023/11/29 08:46:56;;;;;;;38.40;22.43;;;;;;;3.67;nan;99357.84;5038073;27;96798;-83
2023/11/29 08:49:22;;;;;;;37.33;22.17;;;;;;;3.39;nan;99368.78;5037741;27;98970;-84
2023/11/29 08:51:47;;;;;;;39.80;24.07;;;;;;;3.03;nan;99366.91;5037675;27;101272;-82
2023/11/29 08:54:12;;;;;;;42.17;24.37;;;;;;;3.49;nan;99364.28;5020986;27;96569;-75
2023/11/29 08:56:38;;;;;;;46.23;23.83;;;;;;;3.51;nan;99340.88;5021072;27;96986;-77
2023/11/29 08:59:04;;;;;;;40.30;22.60;;;;;;;3.58;nan;99345.91;5054686;27;97255;-78
2023/11/29 09:01:31;;;;;;;42.67;22.23;;;;;;;3.67;nan;99341.41;5037695;27;101337;-77
2023/11/29 09:03:57;;;;;;;39.97;23.13;;;;;;;3.95;nan;99328.66;5037348;27;96874;-77
2023/11/29 09:06:23;;;;;;;43.07;24.43;;;;;;;4.23;nan;99347.06;5020981;27;96772;-82
2023/11/29 09:08:49;;;;;;;38.90;22.07;;;;;;;4.14;nan;99349.88;5054200;27;97492;-78
2023/11/29 09:11:16;;;;;;;38.27;22.50;;;;;;;4.35;nan;99351.13;5037236;27;97561;-76
2023/11/29 09:13:43;;;;;;;45.03;22.53;;;;;;;4.23;nan;99340.13;5037339;27;96637;-78
2023/11/29 09:16:08;;;;;;;41.17;23.50;;;;;;;3.85;nan;99334.06;5054725;27;96856;-76
2023/11/29 09:18:34;;;;;;;44.83;23.37;;;;;;;3.05;nan;99340.03;5037596;27;97613;-80
2023/11/29 09:21:00;;;;;;;51.47;28.87;;;;;;;3.02;nan;99331.47;5054728;27;97848;-75
2023/11/29 09:23:26;;;;;;;71.57;35.57;;;;;;;2.54;nan;99339.25;5037538;27;96807;-76
2023/11/29 09:25:51;;;;;;;61.70;29.93;;;;;;;2.01;nan;99350.44;5038515;27;96822;-77
2023/11/29 09:28:17;;;;;;;55.53;28.80;;;;;;;1.70;nan;99334.50;5053408;27;101256;-76
2023/11/29 09:30:44;;;;;;;58.37;30.30;;;;;;;1.77;nan;99336.09;5019953;27;101364;-78
2023/11/29 09:33:10;;;;;;;51.33;27.50;;;;;;;1.70;nan;99329.31;5036877;27;97601;-75
2023/11/29 09:35:35;;;;;;;52.30;27.53;;;;;;;1.67;nan;99325.91;5054184;27;96710;-76
2023/11/29 09:38:01;;;;;;;57.43;28.93;;;;;;;1.02;nan;99305.16;5036916;27;100085;-75
2023/11/29 09:40:27;;;;;;;54.07;26.13;;;;;;;1.21;nan;99335.09;5054304;27;97305;-77
2023/11/29 09:42:53;;;;;;;53.70;28.53;;;;;;;1.06;nan;99328.41;5037202;27;96605;-75
2023/11/29 09:45:25;;;;;;;54.50;29.03;;;;;;;0.80;nan;99320.06;5054297;27;96718;-76
2023/11/29 09:47:51;;;;;;;56.17;29.33;;;;;;;1.04;nan;99317.22;5020700;27;100950;-77
2023/11/29 09:50:17;;;;;;;52.50;28.00;;;;;;;1.11;nan;99315.44;5037520;27;98130;-75
2023/11/29 09:52:46;;;;;;;53.60;27.40;;;;;;;0.79;nan;99314.06;5037291;27;96524;-75
2023/11/29 09:55:12;;;;;;;55.03;27.80;;;;;;;0.78;nan;99320.06;5037463;27;96696;-86
2023/11/29 09:57:38;;;;;;;50.73;25.20;;;;;;;0.45;nan;99316.94;5036281;27;101449;-74
2023/11/29 10:00:10;;;;;;;54.83;26.50;;;;;;;0.64;nan;99304.72;5037167;27;97875;-76
2023/11/29 10:02:38;;;;;;;53.20;25.50;;;;;;;0.84;nan;99306.22;5036958;27;96737;-74
2023/11/29 10:05:04;;;;;;;47.07;22.80;;;;;;;0.71;nan;99291.75;5020162;27;96911;-74
2023/11/29 10:07:29;;;;;;;56.27;24.70;;;;;;;0.60;nan;99299.59;5036670;27;101497;-74
2023/11/29 10:10:00;;;;;;;49.60;26.00;;;;;;;0.22;nan;99282.72;5019716;27;100545;-77
2023/11/29 10:12:25;;;;;;;48.80;24.43;;;;;;;0.29;nan;99289.56;5036373;27;96692;-75
2023/11/29 10:14:51;;;;;;;46.17;24.37;;;;;;;0.27;nan;99283.56;5037018;27;96799;-76
2023/11/29 10:17:16;;;;;;;41.77;22.50;;;;;;;0.23;nan;99276.69;5036613;27;97627;-76
2023/11/29 10:19:46;;;;;;;46.50;23.53;;;;;;;0.35;nan;99268.88;5036660;27;100941;-74
2023/11/29 10:22:19;;;;;;;49.10;25.87;;;;;;;0.42;nan;99264.50;5036563;27;96698;-74
2023/11/29 10:24:44;;;;;;;48.30;24.53;;;;;;;0.46;nan;99261.00;5036794;27;96902;-75
2023/11/29 10:27:11;;;;;;;49.63;24.63;;;;;;;0.35;nan;99245.63;5036555;27;100970;-74
2023/11/29 10:29:36;;;;;;;48.53;26.03;;;;;;;0.63;nan;99255.66;5036209;27;101151;-74
2023/11/29 10:32:08;;;;;;;43.10;22.47;;;;;;;0.86;nan;99258.84;5019718;27;96580;-75
2023/11/29 10:34:34;;;;;;;44.92;23.65;;;;;;;0.87;nan;99257.97;5036686;27;96743;-73
2023/11/29 10:37:01;;;;;;;41.63;21.97;;;;;;;1.05;nan;99253.47;5036255;27;100238;-79
2023/11/29 10:39:30;;;;;;;48.53;23.80;;;;;;;1.13;nan;99259.38;5053746;27;97519;-74
2023/11/29 10:41:57;;;;;;;46.80;22.47;;;;;;;1.13;nan;99257.66;5039480;27;96794;-76
2023/11/29 10:44:31;;;;;;;41.97;22.87;;;;;;;1.05;nan;99248.31;5039867;27;96691;-75
2023/11/29 10:47:23;;;;;;;44.13;23.67;;;;;;;0.70;nan;99261.59;5056144;27;97529;-75
2023/11/29 10:49:55;;;;;;;44.55;24.13;;;;;;;0.64;nan;99245.31;5039728;27;99785;-75
2023/11/29 10:52:20;;;;;;;44.45;23.23;;;;;;;0.38;nan;99244.75;5039371;27;96569;-75
2023/11/29 10:54:46;;;;;;;39.90;22.03;;;;;;;0.56;nan;99246.28;5039414;27;96952;-75
2023/11/29 10:57:13;;;;;;;45.27;24.17;;;;;;;0.41;nan;99236.97;5056586;27;97534;-75
2023/11/29 10:59:41;;;;;;;41.37;24.70;;;;;;;0.18;nan;99244.94;5039541;27;101255;-75
2023/11/29 11:02:06;;;;;;;45.53;24.43;;;;;;;0.19;nan;99238.88;5056537;27;96642;-74
2023/11/29 11:04:42;;;;;;;41.10;23.67;;;;;;;0.06;nan;99238.16;5022919;27;96699;-74
2023/11/29 11:07:43;;;;;;;47.47;23.93;;;;;;;0.19;nan;99229.41;5039436;27;97988;-74
2023/11/29 11:10:16;;;;;;;39.80;23.30;;;;;;;0.37;nan;99222.34;5056491;27;97992;-76
2023/11/29 11:12:42;;;;;;;45.83;24.73;;;;;;;0.28;nan;99227.63;5021887;27;97941;-74
2023/11/29 11:15:14;;;;;;;42.83;23.80;;;;;;;0.20;nan;99225.09;5039220;27;96710;-74
2023/11/29 11:17:43;;;;;;;43.50;23.57;;;;;;;0.17;nan;99230.28;5039189;27;101389;-75
2023/11/29 11:20:10;;;;;;;55.30;26.93;;;;;;;0.12;nan;99225.19;5056101;27;97913;-77
2023/11/29 11:22:43;;;;;;;54.40;26.97;;;;;;;-0.08;nan;99221.94;5022263;27;96656;-74
2023/11/29 11:25:18;;;;;;;55.13;27.53;;;;;;;-0.08;nan;99198.72;5056824;27;96769;-75
2023/11/29 11:27:46;;;;;;;48.50;25.87;;;;;;;0.17;nan;99213.06;5056595;27;97984;-76
2023/11/29 11:30:12;;;;;;;40.57;21.70;;;;;;;0.23;nan;99217.31;5056527;27;97614;-75
2023/11/29 11:32:37;;;;;;;40.70;22.37;;;;;;;0.12;nan;99217.44;5074815;27;96575;-75
2023/11/29 11:35:21;;;;;;;44.20;24.47;;;;;;;-0.18;nan;99215.13;5074721;27;96495;-81